createdAt,value
2023-01-29T00:00:44.781Z,100997.19
2023-01-29T00:03:34.744Z,100999.56
2023-01-29T00:06:23.752Z,100999.15
2023-01-29T00:09:13.808Z,100998.16
2023-01-29T00:12:02.641Z,100996.77
2023-01-29T00:14:54.975Z,100994.05
2023-01-29T00:17:44.600Z,100996.78
2023-01-29T00:20:34.126Z,100991.79
2023-01-29T00:23:23.280Z,100990.73
2023-01-29T00:26:12.070Z,100986.50
2023-01-29T00:29:02.146Z,100979.75
2023-01-29T00:31:50.907Z,100980.94
2023-01-29T00:34:39.751Z,100982.66
2023-01-29T00:37:28.658Z,100984.01
2023-01-29T00:40:17.726Z,100987.73
2023-01-29T00:43:26.464Z,100991.76
2023-01-29T00:46:15.408Z,100992.40
2023-01-29T00:49:04.421Z,100989.25
2023-01-29T00:52:11.557Z,100994.20
2023-01-29T00:55:00.544Z,100996.86
2023-01-29T00:57:50.101Z,100989.43
2023-01-29T01:00:38.784Z,100984.86
2023-01-29T01:03:27.488Z,100980.92
2023-01-29T01:06:16.572Z,100982.95
2023-01-29T01:09:24.258Z,100989.78
2023-01-29T01:12:13.391Z,100991.94
2023-01-29T01:15:02.177Z,100993.29
2023-01-29T01:17:55.590Z,100991.89
2023-01-29T01:20:45.346Z,100994.66
2023-01-29T01:23:34.436Z,100993.16
2023-01-29T01:26:26.213Z,100994.90
2023-01-29T01:29:15.195Z,100988.66
2023-01-29T01:32:04.158Z,100982.05
2023-01-29T01:34:53.628Z,100982.90
2023-01-29T01:37:42.449Z,100978.08
2023-01-29T01:40:31.490Z,100984.11
2023-01-29T01:43:20.242Z,100988.52
2023-01-29T01:46:09.742Z,100989.31
2023-01-29T01:49:05.780Z,100991.27
2023-01-29T01:51:54.888Z,100997.39
2023-01-29T01:54:43.954Z,100993.53
2023-01-29T01:57:33.877Z,100990.16
2023-01-29T02:00:23.430Z,100994.23
2023-01-29T02:03:30.662Z,100995.35
2023-01-29T02:06:37.945Z,100999.77
2023-01-29T02:09:39.759Z,100999.12
2023-01-29T02:12:31.217Z,101003.66
2023-01-29T02:15:20.122Z,101001.08
2023-01-29T02:18:09.204Z,100998.77
2023-01-29T02:21:24.957Z,100993.14
2023-01-29T02:24:18.193Z,100986.09
2023-01-29T02:27:15.276Z,100987.30
2023-01-29T02:30:13.425Z,100988.23
2023-01-29T02:33:14.615Z,100986.19
2023-01-29T02:36:22.055Z,100990.61
2023-01-29T02:39:34.196Z,100999.45
2023-01-29T02:42:35.812Z,100996.02
2023-01-29T02:45:44.982Z,100995.31
2023-01-29T02:48:41.351Z,100989.85
2023-01-29T02:51:34.179Z,100984.41
2023-01-29T02:54:33.861Z,100987.88
2023-01-29T02:57:24.695Z,100984.80
2023-01-29T03:00:15.068Z,100985.14
2023-01-29T03:03:06.594Z,100983.29
2023-01-29T03:05:59.941Z,100976.02
2023-01-29T03:09:04.122Z,100974.08
2023-01-29T03:11:54.769Z,100972.18
2023-01-29T03:15:05.174Z,100965.02
2023-01-29T03:17:57.569Z,100962.46
2023-01-29T03:20:50.760Z,100957.32
2023-01-29T03:24:00.579Z,100958.77
2023-01-29T03:27:08.017Z,100959.54
2023-01-29T03:30:17.499Z,100957.30
2023-01-29T03:33:15.455Z,100954.86
2023-01-29T03:36:13.967Z,100955.91
2023-01-29T03:39:02.578Z,100955.16
2023-01-29T03:41:54.004Z,100957.27
2023-01-29T03:45:07.761Z,100964.44
2023-01-29T03:48:12.198Z,100972.64
2023-01-29T03:51:05.377Z,100978.31
2023-01-29T03:54:08.446Z,100987.33
2023-01-29T03:56:57.678Z,100985.91
2023-01-29T04:00:02.197Z,100991.61
2023-01-29T04:03:21.790Z,100992.48
2023-01-29T04:06:17.396Z,100993.47
2023-01-29T04:09:39.099Z,100993.00
2023-01-29T04:12:36.082Z,100987.28
2023-01-29T04:15:26.061Z,100984.39
2023-01-29T04:18:14.818Z,100985.66
2023-01-29T04:21:26.518Z,100983.89
2023-01-29T04:24:15.515Z,100981.05
2023-01-29T04:27:10.633Z,100984.34
2023-01-29T04:30:19.179Z,100982.61
2023-01-29T04:33:30.461Z,100983.32
2023-01-29T04:36:32.565Z,100984.94
2023-01-29T04:39:26.976Z,100986.14
2023-01-29T04:42:21.973Z,100991.85
2023-01-29T04:45:16.395Z,100995.57
2023-01-29T04:48:29.992Z,100996.94
2023-01-29T04:51:44.259Z,100992.98
2023-01-29T04:55:11.516Z,100995.03
2023-01-29T04:58:12.405Z,100999.40
2023-01-29T05:01:01.158Z,100998.02
2023-01-29T05:03:51.398Z,100992.00
2023-01-29T05:06:40.404Z,100988.61
2023-01-29T05:09:29.199Z,100991.65
2023-01-29T05:12:18.379Z,100997.94
2023-01-29T05:15:14.174Z,100999.95
2023-01-29T05:18:03.974Z,101004.44
2023-01-29T05:20:52.606Z,101009.41
2023-01-29T05:23:53.137Z,101006.09
2023-01-29T05:27:02.123Z,101005.52
2023-01-29T05:29:51.322Z,101010.11
2023-01-29T05:32:40.209Z,101007.47
2023-01-29T05:35:29.563Z,101012.65
2023-01-29T05:38:18.427Z,101015.88
2023-01-29T05:41:07.234Z,101015.15
2023-01-29T05:43:56.090Z,101017.13
2023-01-29T05:46:45.213Z,101017.57
2023-01-29T05:49:33.954Z,101017.00
2023-01-29T05:52:22.981Z,101015.80
2023-01-29T05:55:12.016Z,101016.11
2023-01-29T05:58:00.830Z,101020.13
2023-01-29T06:00:49.630Z,101018.93
2023-01-29T06:03:38.353Z,101020.93
2023-01-29T06:06:28.187Z,101024.90
2023-01-29T06:09:17.158Z,101025.52
2023-01-29T06:12:08.910Z,101023.23
2023-01-29T06:14:57.739Z,101024.45
2023-01-29T06:17:46.401Z,101022.94
2023-01-29T06:20:37.133Z,101026.77
2023-01-29T06:23:25.825Z,101022.73
2023-01-29T06:26:14.923Z,101029.39
2023-01-29T06:29:04.120Z,101027.05
2023-01-29T06:31:53.503Z,101027.61
2023-01-29T06:34:42.246Z,101030.29
2023-01-29T06:37:31.098Z,101024.44
2023-01-29T06:40:19.918Z,101030.12
2023-01-29T06:43:08.518Z,101025.89
2023-01-29T06:45:57.599Z,101026.69
2023-01-29T06:48:46.289Z,101026.70
2023-01-29T06:51:35.234Z,101025.98
2023-01-29T06:54:24.007Z,101029.37
2023-01-29T06:57:12.688Z,101028.39
2023-01-29T07:00:01.510Z,101025.34
2023-01-29T07:02:51.176Z,101023.17
2023-01-29T07:05:39.834Z,101022.73
2023-01-29T07:08:29.201Z,101027.17
2023-01-29T07:11:17.912Z,101024.73
2023-01-29T07:14:07.105Z,101023.42
2023-01-29T07:16:56.299Z,101026.55
2023-01-29T07:19:45.041Z,101026.23
2023-01-29T07:22:33.932Z,101022.02
2023-01-29T07:25:23.009Z,101030.73
2023-01-29T07:28:12.234Z,101024.02
2023-01-29T07:31:00.940Z,101020.84
2023-01-29T07:33:50.232Z,101027.52
2023-01-29T07:36:39.215Z,101025.96
2023-01-29T07:39:28.335Z,101020.58
2023-01-29T07:42:17.238Z,101024.10
2023-01-29T07:45:07.060Z,101020.46
2023-01-29T07:47:56.043Z,101019.09
2023-01-29T07:50:45.025Z,101021.81
2023-01-29T07:53:33.801Z,101019.27
2023-01-29T07:56:23.264Z,101017.83
2023-01-29T07:59:12.052Z,101024.41
2023-01-29T08:02:00.720Z,101022.41
2023-01-29T08:04:50.894Z,101024.73
2023-01-29T08:07:39.811Z,101027.63
2023-01-29T08:10:28.703Z,101034.45
2023-01-29T08:13:17.735Z,101032.99
2023-01-29T08:16:06.805Z,101034.05
2023-01-29T08:18:55.559Z,101036.88
2023-01-29T08:21:44.988Z,101038.66
2023-01-29T08:24:47.600Z,101035.25
2023-01-29T08:27:42.699Z,101035.14
2023-01-29T08:30:32.401Z,101036.55
2023-01-29T08:33:29.811Z,101032.77
2023-01-29T08:36:22.455Z,101034.00
2023-01-29T08:39:11.246Z,101029.36
2023-01-29T08:42:00.461Z,101028.35
2023-01-29T08:44:49.419Z,101032.25
2023-01-29T08:47:38.733Z,101027.84
2023-01-29T08:50:27.461Z,101029.84
2023-01-29T08:53:19.568Z,101027.88
2023-01-29T08:56:08.399Z,101021.73
2023-01-29T08:58:58.302Z,101022.02
2023-01-29T09:01:47.159Z,101023.94
2023-01-29T09:04:35.922Z,101020.78
2023-01-29T09:07:24.809Z,101017.25
2023-01-29T09:10:13.872Z,101016.70
2023-01-29T09:13:02.669Z,101017.95
2023-01-29T09:15:51.375Z,101016.30
2023-01-29T09:18:40.086Z,101010.49
2023-01-29T09:21:28.861Z,101005.22
2023-01-29T09:24:17.526Z,100999.17
2023-01-29T09:27:10.079Z,100997.77
2023-01-29T09:29:58.937Z,100997.30
2023-01-29T09:32:55.295Z,100995.56
2023-01-29T09:35:47.987Z,100997.20
2023-01-29T09:38:36.796Z,100993.05
2023-01-29T09:42:04.094Z,100992.49
2023-01-29T09:45:16.058Z,100982.52
2023-01-29T09:48:09.169Z,100985.23
2023-01-29T09:50:59.023Z,100984.11
2023-01-29T09:53:53.129Z,100980.94
2023-01-29T09:56:42.510Z,100977.52
2023-01-29T09:59:31.802Z,100975.70
2023-01-29T12:04:46.701Z,100884.54
2023-01-29T12:07:35.689Z,100884.23
2023-01-29T12:10:35.750Z,100878.25
2023-01-29T12:13:27.913Z,100883.45
2023-01-29T12:16:16.892Z,100883.95
2023-01-29T12:19:22.238Z,100883.29
2023-01-29T12:22:12.234Z,100887.42
2023-01-29T12:25:07.690Z,100886.56
2023-01-29T12:28:17.510Z,100884.65
2023-01-29T12:31:12.613Z,100887.29
2023-01-29T12:34:31.715Z,100883.08
2023-01-29T12:37:39.404Z,100883.39
2023-01-29T12:40:38.723Z,100888.52
2023-01-29T12:43:42.063Z,100892.88
2023-01-29T12:46:38.620Z,100895.77
2023-01-29T12:49:32.906Z,100898.11
2023-01-29T12:52:37.070Z,100898.80
2023-01-29T12:55:28.177Z,100899.85
2023-01-29T12:58:22.196Z,100900.45
2023-01-29T13:01:17.368Z,100901.83
2023-01-29T13:04:15.728Z,100900.69
2023-01-29T13:07:19.206Z,100902.44
2023-01-29T13:10:12.258Z,100899.48
2023-01-29T13:13:07.099Z,100898.59
2023-01-29T13:15:55.870Z,100898.98
2023-01-29T13:18:50.858Z,100899.23
2023-01-29T13:21:43.953Z,100893.96
2023-01-29T13:24:39.257Z,100897.98
2023-01-29T13:27:30.368Z,100902.25
2023-01-29T13:30:26.433Z,100896.27
2023-01-29T13:33:21.297Z,100899.41
2023-01-29T13:36:15.032Z,100901.00
2023-01-29T13:39:08.716Z,100901.65
2023-01-29T13:41:58.476Z,100901.23
2023-01-29T13:44:51.482Z,100899.08
2023-01-29T13:47:40.860Z,100899.55
2023-01-29T13:50:40.349Z,100905.92
2023-01-29T13:53:33.348Z,100906.59
2023-01-29T13:56:31.068Z,100903.27
2023-01-29T13:59:49.305Z,100896.16
2023-01-29T14:02:38.549Z,100893.52
2023-01-29T14:05:30.067Z,100893.60
2023-01-29T14:08:38.665Z,100894.05
2023-01-29T14:11:34.812Z,100894.10
2023-01-29T14:14:48.433Z,100896.59
2023-01-29T14:17:37.414Z,100897.56
2023-01-29T14:20:48.585Z,100906.55
2023-01-29T14:23:52.174Z,100906.01
2023-01-29T14:26:45.859Z,100905.67
2023-01-29T14:29:38.095Z,100907.57
2023-01-29T14:32:27.234Z,100911.33
2023-01-29T14:35:23.466Z,100911.96
2023-01-29T14:38:12.741Z,100909.52
2023-01-29T14:41:31.564Z,100913.42
2023-01-29T14:44:45.397Z,100910.63
2023-01-29T14:47:35.345Z,100912.41
2023-01-29T14:50:32.793Z,100909.56
2023-01-29T14:53:31.582Z,100912.30
2023-01-29T14:56:37.094Z,100911.66
2023-01-29T14:59:37.509Z,100911.12
2023-01-29T15:02:43.510Z,100906.59
2023-01-29T15:05:36.119Z,100904.52
2023-01-29T15:08:48.074Z,100906.80
2023-01-29T15:12:03.339Z,100911.75
2023-01-29T15:15:13.627Z,100914.84
2023-01-29T15:18:05.697Z,100915.84
2023-01-29T15:21:05.911Z,100915.59
2023-01-29T15:24:04.343Z,100912.69
2023-01-29T15:26:53.160Z,100910.24
2023-01-29T15:29:42.743Z,100914.28
2023-01-29T15:32:39.481Z,100912.13
2023-01-29T15:35:29.178Z,100911.85
2023-01-29T15:38:19.493Z,100912.90
2023-01-29T15:41:21.659Z,100917.61
2023-01-29T15:44:22.057Z,100920.09
2023-01-29T15:47:10.920Z,100926.52
2023-01-29T15:50:00.729Z,100930.10
2023-01-29T15:52:51.064Z,100934.92
2023-01-29T15:55:39.738Z,100940.19
2023-01-29T18:04:51.017Z,100939.09
2023-01-29T18:07:40.157Z,100945.02
2023-01-29T18:10:29.279Z,100945.56
2023-01-29T18:13:18.406Z,100947.61
2023-01-29T18:16:07.623Z,100950.21
2023-01-29T18:18:56.938Z,100946.59
2023-01-29T18:21:45.620Z,100941.63
2023-01-29T18:24:36.395Z,100940.23
2023-01-29T18:27:25.491Z,100940.33
2023-01-29T18:30:14.684Z,100944.23
2023-01-29T18:33:03.531Z,100941.45
2023-01-29T18:35:56.973Z,100938.39
2023-01-29T18:38:45.965Z,100936.00
2023-01-29T18:41:34.838Z,100934.20
2023-01-29T18:44:23.700Z,100935.58
2023-01-29T18:47:12.674Z,100936.34
2023-01-29T18:50:01.656Z,100938.52
2023-01-29T18:52:50.679Z,100935.41
2023-01-29T18:55:40.049Z,100938.59
2023-01-29T18:58:36.042Z,100933.81
2023-01-29T19:01:27.287Z,100932.23
2023-01-29T19:04:16.334Z,100928.98
2023-01-29T19:07:05.227Z,100930.35
2023-01-29T19:09:53.926Z,100929.27
2023-01-29T19:12:43.910Z,100931.27
2023-01-29T19:15:33.318Z,100934.00
2023-01-29T19:18:25.568Z,100933.77
2023-01-29T19:21:15.458Z,100930.11
2023-01-29T19:24:10.186Z,100929.42
2023-01-29T19:27:00.597Z,100931.14
2023-01-29T19:29:49.503Z,100932.42
2023-01-29T19:32:40.601Z,100932.48
2023-01-29T19:35:29.961Z,100927.77
2023-01-29T19:38:21.233Z,100925.66
2023-01-29T19:41:10.082Z,100926.98
2023-01-29T19:43:58.805Z,100922.77
2023-01-29T19:46:47.556Z,100928.90
2023-01-29T19:49:36.549Z,100927.16
2023-01-29T19:52:51.151Z,100924.27
2023-01-29T19:55:40.540Z,100924.88
2023-01-29T19:58:29.637Z,100925.49
2023-01-29T20:01:20.344Z,100928.05
2023-01-29T20:04:09.080Z,100926.52
2023-01-29T20:06:57.941Z,100931.56
2023-01-29T20:09:47.476Z,100934.89
2023-01-29T20:12:36.411Z,100937.94
2023-01-29T20:15:25.512Z,100928.77
2023-01-29T20:18:14.557Z,100930.89
2023-01-29T20:21:11.133Z,100928.11
2023-01-29T20:24:00.110Z,100926.40
2023-01-29T20:26:50.303Z,100928.11
2023-01-29T20:29:39.418Z,100926.36
2023-01-29T20:32:28.479Z,100921.80
2023-01-29T20:35:17.282Z,100924.35
2023-01-29T20:38:06.358Z,100926.21
2023-01-29T20:40:55.320Z,100921.58
2023-01-29T20:43:44.302Z,100921.63
2023-01-29T20:46:35.384Z,100916.29
2023-01-29T20:49:24.309Z,100920.06
2023-01-29T20:52:12.919Z,100922.23
2023-01-29T20:55:02.576Z,100915.27
2023-01-29T20:58:06.036Z,100913.50
2023-01-29T21:00:55.342Z,100915.19
2023-01-29T21:03:44.358Z,100915.90
2023-01-29T21:06:33.299Z,100918.81
2023-01-29T21:09:24.800Z,100916.55
2023-01-29T21:12:13.962Z,100913.39
2023-01-29T21:15:02.680Z,100908.64
2023-01-29T21:17:52.613Z,100907.80
2023-01-29T21:20:41.323Z,100910.55
2023-01-29T21:23:30.368Z,100910.88
2023-01-29T21:26:19.363Z,100909.63
2023-01-29T21:29:08.116Z,100902.68
2023-01-29T21:31:57.512Z,100903.89
2023-01-29T21:34:46.983Z,100900.13
2023-01-29T21:37:38.013Z,100900.38
2023-01-29T21:40:26.836Z,100896.20
2023-01-29T21:43:16.199Z,100896.69
2023-01-29T21:46:11.960Z,100896.97
2023-01-29T21:49:00.919Z,100892.50
2023-01-29T21:51:49.639Z,100886.56
2023-01-29T21:54:45.653Z,100884.71
2023-01-29T21:57:35.787Z,100883.95
2023-01-29T22:00:24.541Z,100891.49
2023-01-29T22:03:13.333Z,100887.92
2023-01-29T22:06:02.012Z,100881.88
2023-01-29T22:08:52.332Z,100881.88
2023-01-29T22:11:41.690Z,100884.52
2023-01-29T22:14:31.427Z,100882.09
2023-01-29T22:17:20.722Z,100876.39
2023-01-29T22:20:11.002Z,100871.27
2023-01-29T22:23:00.659Z,100875.69
2023-01-29T22:25:49.962Z,100873.36
2023-01-29T22:28:38.982Z,100869.92
2023-01-29T22:31:27.651Z,100864.16
2023-01-29T22:34:16.369Z,100864.08
2023-01-29T22:37:05.280Z,100865.00
2023-01-29T22:39:53.928Z,100865.41
2023-01-29T22:42:42.761Z,100864.95
2023-01-29T22:45:31.640Z,100865.59
2023-01-29T22:48:20.443Z,100862.80
2023-01-29T22:51:10.114Z,100864.54
2023-01-29T22:53:59.080Z,100861.36
2023-01-29T22:56:48.217Z,100859.98
2023-01-29T22:59:38.012Z,100860.31
2023-01-29T23:02:26.692Z,100863.58
2023-01-29T23:05:16.163Z,100860.20
2023-01-29T23:08:05.201Z,100861.14
2023-01-29T23:10:54.555Z,100858.81
2023-01-29T23:13:53.722Z,100855.84
2023-01-29T23:16:43.067Z,100855.89
2023-01-29T23:19:32.616Z,100860.85
2023-01-29T23:22:21.598Z,100860.37
2023-01-29T23:25:10.311Z,100861.98
2023-01-29T23:27:59.095Z,100865.33
2023-01-29T23:30:47.929Z,100864.45
2023-01-29T23:33:37.647Z,100861.25
2023-01-29T23:36:26.513Z,100853.00
2023-01-29T23:39:15.404Z,100854.07
2023-01-29T23:42:07.530Z,100856.59
2023-01-29T23:44:56.285Z,100851.32
2023-01-29T23:47:45.126Z,100849.64
2023-01-29T23:50:33.993Z,100845.52
2023-01-29T23:53:22.727Z,100845.77
2023-01-29T23:56:11.599Z,100845.24
2023-01-29T23:59:00.346Z,100848.21
